Time;durP1;ratioP1;P1;durP2;ratioP2;P2;SDS_P1;SDS_P2;PMS_P1;PMS_P2;Temp;Humidity;BMP_temperature;BMP_pressure;BME280_temperature;BME280_humidity;BME280_pressure;Samples;Min_cycle;Max_cycle;Signal;HPM_P1;HPM_P2
2023/03/09 00:01:27;;;;;;;32.97;21.35;;;6.70;73.10;;;;;;5015473;28;20041;-50
2023/03/09 00:03:57;;;;;;;29.48;19.25;;;6.80;73.20;;;;;;5027675;28;20096;-50
2023/03/09 00:06:24;;;;;;;32.88;21.33;;;6.80;73.10;;;;;;5029610;28;21933;-49
2023/03/09 00:08:51;;;;;;;30.48;20.52;;;6.80;73.20;;;;;;5014437;28;20044;-50
2023/03/09 00:11:20;;;;;;;32.00;20.63;;;6.80;73.10;;;;;;5023730;28;20050;-50
2023/03/09 00:13:50;;;;;;;32.33;21.20;;;6.80;73.00;;;;;;5030632;28;20048;-54
2023/03/09 00:16:22;;;;;;;30.73;20.73;;;6.80;73.00;;;;;;5015955;28;20061;-50
2023/03/09 00:18:53;;;;;;;28.27;19.17;;;6.80;73.00;;;;;;5023135;28;20064;-53
2023/03/09 00:21:39;;;;;;;28.30;18.75;;;6.80;72.80;;;;;;5018236;28;20046;-51
2023/03/09 00:24:16;;;;;;;32.83;20.17;;;6.80;72.80;;;;;;5019050;28;20045;-48
2023/03/09 00:26:50;;;;;;;29.63;19.75;;;6.80;72.70;;;;;;5018337;28;20087;-52
2023/03/09 00:29:20;;;;;;;32.03;20.60;;;6.80;72.70;;;;;;4994732;28;20427;-49
2023/03/09 00:31:50;;;;;;;29.25;19.80;;;6.80;72.60;;;;;;5007513;28;20039;-50
2023/03/09 00:34:17;;;;;;;31.83;19.73;;;6.70;72.50;;;;;;5010954;28;20410;-51
2023/03/09 00:36:44;;;;;;;31.15;18.65;;;6.70;72.50;;;;;;5015856;28;20061;-54
2023/03/09 00:39:13;;;;;;;29.08;18.73;;;6.70;72.60;;;;;;4987353;28;20054;-49
2023/03/09 00:41:42;;;;;;;26.88;17.55;;;6.70;72.70;;;;;;5010269;28;20037;-49
2023/03/09 00:44:11;;;;;;;26.42;17.10;;;6.70;72.80;;;;;;5003474;28;20045;-50
2023/03/09 00:46:39;;;;;;;30.13;18.95;;;6.70;72.90;;;;;;5013855;28;20037;-54
2023/03/09 00:49:06;;;;;;;28.90;19.45;;;6.70;72.90;;;;;;5022288;28;20080;-51
2023/03/09 00:51:37;;;;;;;26.70;16.83;;;6.60;72.80;;;;;;4982988;28;20041;-50
2023/03/09 00:54:05;;;;;;;29.55;17.83;;;6.60;72.70;;;;;;5009680;28;20037;-50
2023/03/09 00:56:32;;;;;;;26.05;16.88;;;6.70;72.80;;;;;;5020160;28;20095;-50
2023/03/09 00:58:59;;;;;;;25.13;15.70;;;6.60;72.70;;;;;;5008432;28;20041;-50
2023/03/09 01:01:26;;;;;;;25.13;16.95;;;6.80;72.90;;;;;;5012295;28;20069;-49
2023/03/09 01:03:53;;;;;;;24.10;16.33;;;6.60;72.90;;;;;;5022013;28;20103;-52
2023/03/09 01:06:26;;;;;;;24.48;16.00;;;6.60;72.80;;;;;;5028928;28;20560;-51
2023/03/09 01:08:55;;;;;;;25.38;16.75;;;6.60;73.00;;;;;;5010190;28;20056;-50
2023/03/09 01:11:22;;;;;;;25.48;16.90;;;6.60;73.00;;;;;;5002021;28;20037;-54
2023/03/09 01:14:00;;;;;;;26.27;16.77;;;6.60;73.00;;;;;;5012502;28;20034;-49
2023/03/09 01:16:26;;;;;;;24.95;16.27;;;6.70;73.20;;;;;;5029776;28;20707;-50
2023/03/09 01:18:53;;;;;;;26.02;17.40;;;6.70;72.90;;;;;;5014836;28;20044;-52
2023/03/09 01:21:22;;;;;;;27.90;17.50;;;6.70;72.80;;;;;;5015106;28;20065;-53
2023/03/09 01:23:49;;;;;;;28.27;17.50;;;6.70;72.70;;;;;;5018851;28;20053;-50
2023/03/09 01:26:22;;;;;;;29.13;18.17;;;6.60;72.70;;;;;;5012059;28;20115;-53
2023/03/09 01:28:50;;;;;;;29.98;19.98;;;6.60;72.50;;;;;;5029856;28;20113;-49
2023/03/09 01:31:17;;;;;;;30.38;19.50;;;6.60;72.40;;;;;;5001399;28;20438;-49
2023/03/09 01:33:49;;;;;;;32.53;19.33;;;6.60;72.40;;;;;;5023137;28;20037;-49
2023/03/09 01:36:17;;;;;;;35.03;21.35;;;6.60;72.40;;;;;;5029758;28;20046;-54
2023/03/09 01:38:47;;;;;;;33.90;22.15;;;6.50;72.40;;;;;;5015905;28;20080;-52
2023/03/09 01:41:15;;;;;;;39.88;24.52;;;6.50;73.10;;;;;;5012181;28;20050;-53
2023/03/09 01:43:47;;;;;;;39.72;23.55;;;6.40;72.50;;;;;;5016347;28;20415;-53
2023/03/09 01:46:25;;;;;;;37.63;22.52;;;6.40;72.50;;;;;;5009300;28;20049;-50
2023/03/09 01:49:00;;;;;;;34.92;22.13;;;6.40;72.70;;;;;;4994368;28;20095;-50
2023/03/09 01:51:53;;;;;;;37.28;23.35;;;6.30;72.70;;;;;;5014338;28;20053;-50
2023/03/09 01:54:31;;;;;;;35.58;21.83;;;6.30;73.00;;;;;;5010553;28;20053;-50
2023/03/09 01:57:11;;;;;;;39.20;23.40;;;6.30;73.00;;;;;;5029776;28;20494;-50
2023/03/09 01:59:39;;;;;;;36.80;22.17;;;6.30;73.20;;;;;;4981722;28;20049;-52
2023/03/09 02:02:06;;;;;;;37.80;23.10;;;6.30;73.20;;;;;;5006685;28;20046;-50
2023/03/09 02:04:45;;;;;;;33.83;21.77;;;6.30;73.20;;;;;;5023243;28;20045;-51
2023/03/09 02:07:18;;;;;;;38.90;22.58;;;6.30;73.30;;;;;;5012161;28;20073;-53
2023/03/09 02:09:58;;;;;;;38.22;22.58;;;6.30;73.20;;;;;;4986097;28;20042;-52
2023/03/09 02:12:26;;;;;;;39.63;22.25;;;6.30;73.40;;;;;;5008174;28;20136;-51
2023/03/09 02:14:52;;;;;;;36.38;22.02;;;6.30;73.30;;;;;;5029789;28;20514;-50
2023/03/09 02:17:24;;;;;;;37.60;23.42;;;6.30;73.40;;;;;;5029599;28;20038;-50
2023/03/09 02:20:07;;;;;;;35.42;22.00;;;6.20;73.30;;;;;;5009401;28;20040;-49
2023/03/09 02:22:36;;;;;;;35.28;21.38;;;6.30;73.50;;;;;;5008068;28;20116;-54
2023/03/09 02:25:16;;;;;;;37.30;21.77;;;6.20;73.20;;;;;;5006913;28;20044;-49
2023/03/09 02:27:46;;;;;;;39.15;23.05;;;6.20;73.20;;;;;;4985224;28;20410;-50
2023/03/09 02:30:13;;;;;;;39.10;23.38;;;6.20;73.10;;;;;;4996755;28;20565;-49
2023/03/09 02:32:40;;;;;;;39.50;22.27;;;6.20;73.20;;;;;;5018621;28;20087;-54
2023/03/09 02:35:10;;;;;;;37.38;22.42;;;6.20;73.40;;;;;;5015836;28;20044;-49
2023/03/09 02:37:44;;;;;;;38.03;22.97;;;6.20;73.60;;;;;;5007693;28;20050;-50
2023/03/09 02:40:21;;;;;;;38.38;23.08;;;6.20;73.60;;;;;;5008831;28;20297;-53
2023/03/09 02:42:53;;;;;;;34.65;22.23;;;6.20;73.80;;;;;;5005545;28;20088;-54
2023/03/09 02:45:25;;;;;;;38.83;23.67;;;6.20;73.80;;;;;;5012629;28;20045;-50
2023/03/09 02:47:54;;;;;;;38.88;23.67;;;6.20;73.70;;;;;;4997972;28;20069;-52
2023/03/09 02:50:23;;;;;;;42.17;23.80;;;6.20;73.70;;;;;;5009767;28;20113;-50
2023/03/09 02:52:52;;;;;;;39.22;23.42;;;6.20;73.80;;;;;;5008937;28;20398;-52
2023/03/09 02:55:18;;;;;;;39.95;24.00;;;6.20;73.80;;;;;;5011388;28;20042;-50
2023/03/09 02:57:55;;;;;;;42.72;24.08;;;6.20;73.80;;;;;;5018018;28;20038;-53
2023/03/09 03:00:26;;;;;;;43.40;23.63;;;6.20;73.70;;;;;;4990453;28;20137;-51
2023/03/09 03:02:53;;;;;;;40.30;23.98;;;6.20;73.60;;;;;;5024303;28;20040;-50
2023/03/09 03:05:19;;;;;;;45.08;25.13;;;6.20;73.60;;;;;;5014023;28;20054;-53
2023/03/09 03:07:46;;;;;;;40.38;24.67;;;6.20;73.60;;;;;;5007384;28;20038;-49
2023/03/09 03:10:15;;;;;;;45.22;26.13;;;6.20;73.70;;;;;;5009329;28;20137;-49
2023/03/09 03:12:42;;;;;;;42.60;24.30;;;6.20;74.30;;;;;;5013064;28;20046;-54
2023/03/09 03:15:10;;;;;;;48.65;26.70;;;6.20;73.70;;;;;;5010385;28;20095;-49
2023/03/09 03:17:39;;;;;;;46.17;26.85;;;6.20;73.90;;;;;;5009201;28;20058;-51
2023/03/09 03:20:13;;;;;;;45.72;26.08;;;6.20;73.90;;;;;;5006368;28;20045;-52
2023/03/09 03:22:45;;;;;;;44.95;25.50;;;6.20;73.80;;;;;;4991857;28;20481;-53
2023/03/09 03:25:15;;;;;;;44.63;25.52;;;6.30;73.70;;;;;;5011031;28;20042;-50
2023/03/09 03:27:45;;;;;;;44.15;24.80;;;6.20;73.70;;;;;;5003550;28;20456;-50
2023/03/09 03:30:13;;;;;;;44.35;26.00;;;6.30;73.70;;;;;;4995408;28;20129;-49
2023/03/09 03:32:45;;;;;;;43.95;24.77;;;6.30;73.90;;;;;;4998365;28;20041;-49
2023/03/09 03:35:16;;;;;;;50.30;28.02;;;6.30;73.80;;;;;;5014776;28;20101;-49
2023/03/09 03:37:48;;;;;;;49.05;26.42;;;6.30;73.60;;;;;;5010928;28;20498;-49
2023/03/09 03:40:27;;;;;;;45.17;24.87;;;6.30;73.60;;;;;;5005945;28;20065;-53
2023/03/09 03:42:59;;;;;;;51.47;27.80;;;6.30;74.30;;;;;;5015957;28;20050;-49
2023/03/09 03:45:35;;;;;;;46.95;26.05;;;6.30;73.60;;;;;;5011678;28;20044;-50
2023/03/09 03:48:03;;;;;;;49.50;26.38;;;6.30;73.60;;;;;;5022015;28;20042;-50
2023/03/09 03:50:32;;;;;;;51.90;27.80;;;6.30;73.60;;;;;;4976522;28;20046;-50
2023/03/09 03:53:02;;;;;;;51.53;27.52;;;6.30;73.70;;;;;;5007200;28;20050;-50
2023/03/09 03:55:34;;;;;;;49.15;26.98;;;6.20;73.90;;;;;;5011680;28;20061;-50
2023/03/09 03:58:05;;;;;;;52.67;27.02;;;6.30;74.00;;;;;;5013413;28;20425;-49
2023/03/09 04:00:34;;;;;;;54.72;27.48;;;6.30;74.00;;;;;;4988997;28;20425;-48
2023/03/09 04:03:05;;;;;;;50.33;27.00;;;6.30;73.90;;;;;;4996193;28;20073;-51
2023/03/09 04:05:38;;;;;;;50.70;27.17;;;6.30;73.90;;;;;;4996388;28;20049;-51
2023/03/09 04:08:05;;;;;;;53.38;27.25;;;6.30;73.90;;;;;;5015813;28;20399;-49
2023/03/09 04:10:38;;;;;;;50.10;26.27;;;6.30;73.90;;;;;;5009210;28;20084;-51
2023/03/09 04:13:07;;;;;;;48.63;26.92;;;6.30;74.00;;;;;;4990070;28;20050;-48
2023/03/09 04:15:36;;;;;;;49.78;26.48;;;6.30;74.00;;;;;;4994280;28;20066;-50
2023/03/09 04:18:09;;;;;;;48.65;27.13;;;6.40;74.00;;;;;;4999300;28;20049;-49
2023/03/09 04:20:40;;;;;;;47.38;27.02;;;6.40;74.00;;;;;;4989617;28;20054;-51
2023/03/09 04:23:08;;;;;;;50.35;26.33;;;6.40;74.00;;;;;;5008359;28;20054;-50
2023/03/09 04:25:39;;;;;;;42.50;24.90;;;6.40;74.00;;;;;;5011841;28;20533;-50
2023/03/09 04:28:09;;;;;;;49.38;26.60;;;6.40;74.00;;;;;;5015344;28;20046;-50
2023/03/09 04:30:42;;;;;;;49.47;24.58;;;6.40;73.90;;;;;;5011792;28;20537;-52
2023/03/09 04:33:20;;;;;;;44.45;24.58;;;6.40;73.80;;;;;;5011154;28;20037;-50
2023/03/09 04:35:47;;;;;;;51.55;25.90;;;6.40;73.60;;;;;;5005042;28;20045;-48
2023/03/09 04:38:28;;;;;;;44.10;24.58;;;6.40;73.50;;;;;;5011332;28;20107;-53
2023/03/09 04:40:56;;;;;;;40.58;23.48;;;6.40;73.70;;;;;;4996881;28;20246;-49
2023/03/09 04:43:23;;;;;;;44.85;23.80;;;6.40;73.70;;;;;;5010091;28;20128;-54
2023/03/09 04:45:57;;;;;;;43.60;23.48;;;6.40;73.80;;;;;;5016959;28;20044;-49
2023/03/09 04:48:29;;;;;;;40.70;23.02;;;6.40;73.90;;;;;;4994097;28;20052;-49
2023/03/09 04:50:55;;;;;;;42.30;23.45;;;6.40;73.90;;;;;;5020662;28;20043;-54
2023/03/09 04:53:30;;;;;;;40.97;24.05;;;6.40;73.90;;;;;;4991901;28;20046;-52
2023/03/09 04:56:00;;;;;;;42.55;23.13;;;6.40;73.80;;;;;;5030396;28;20043;-53
2023/03/09 04:58:29;;;;;;;38.40;21.90;;;6.40;73.70;;;;;;5011283;28;20498;-50
2023/03/09 05:00:56;;;;;;;38.90;21.42;;;6.40;73.70;;;;;;5005296;28;20461;-51
2023/03/09 05:03:23;;;;;;;41.08;22.98;;;6.40;73.80;;;;;;5009437;28;20046;-50
2023/03/09 05:05:53;;;;;;;36.83;21.35;;;6.40;73.80;;;;;;5009662;28;20038;-49
2023/03/09 05:08:25;;;;;;;41.05;23.08;;;6.40;73.80;;;;;;4997515;28;20415;-50
2023/03/09 05:10:52;;;;;;;35.72;20.73;;;6.50;73.90;;;;;;4999435;28;20037;-49
2023/03/09 05:13:19;;;;;;;36.97;20.80;;;6.50;74.00;;;;;;5007643;28;20068;-50
2023/03/09 05:15:45;;;;;;;39.25;22.10;;;6.50;74.00;;;;;;5029416;28;20751;-49
2023/03/09 05:18:17;;;;;;;39.47;21.30;;;6.50;74.00;;;;;;5006588;28;20116;-49
2023/03/09 05:20:44;;;;;;;38.83;21.88;;;6.50;74.20;;;;;;5005754;28;20065;-52
2023/03/09 05:23:11;;;;;;;35.88;21.63;;;6.50;73.60;;;;;;5007428;28;20065;-51
2023/03/09 05:25:41;;;;;;;32.22;19.23;;;6.50;73.40;;;;;;5011419;28;20103;-49
2023/03/09 05:28:11;;;;;;;34.03;21.58;;;6.50;73.30;;;;;;5008812;28;20141;-50
2023/03/09 05:30:40;;;;;;;38.83;22.00;;;6.40;73.30;;;;;;4994157;28;20049;-54
2023/03/09 05:33:08;;;;;;;35.03;19.90;;;6.40;73.30;;;;;;5005130;28;20049;-48
2023/03/09 05:35:37;;;;;;;35.83;21.10;;;6.40;73.30;;;;;;5000531;28;20133;-53
2023/03/09 05:38:08;;;;;;;35.45;19.60;;;6.40;73.40;;;;;;5001557;28;20502;-50
2023/03/09 05:40:35;;;;;;;40.63;20.88;;;6.40;73.40;;;;;;4987415;28;20053;-50
2023/03/09 05:43:06;;;;;;;34.08;20.13;;;6.40;73.20;;;;;;5007764;28;20184;-51
2023/03/09 05:45:33;;;;;;;37.13;20.55;;;6.40;73.30;;;;;;4997268;28;20049;-52
2023/03/09 05:48:03;;;;;;;34.10;20.33;;;6.40;73.40;;;;;;5009926;28;20034;-50
2023/03/09 05:50:30;;;;;;;37.90;20.73;;;6.40;73.50;;;;;;4992163;28;20049;-53
2023/03/09 05:52:57;;;;;;;37.97;21.45;;;6.40;73.30;;;;;;4988954;28;20093;-52
2023/03/09 05:55:27;;;;;;;39.33;21.38;;;6.40;73.30;;;;;;4986410;28;20514;-50
2023/03/09 05:57:54;;;;;;;37.13;21.42;;;6.30;73.30;;;;;;5010720;28;20045;-51
2023/03/09 06:00:21;;;;;;;37.92;22.50;;;6.30;73.30;;;;;;5005668;28;20422;-51
2023/03/09 06:02:54;;;;;;;37.55;21.85;;;6.30;73.30;;;;;;5001995;28;20041;-52
2023/03/09 06:05:29;;;;;;;42.60;22.65;;;6.30;73.30;;;;;;5012126;28;20528;-50
2023/03/09 06:07:56;;;;;;;38.40;20.70;;;6.30;73.50;;;;;;5033666;28;20033;-54
2023/03/09 06:10:22;;;;;;;40.92;21.67;;;6.30;73.60;;;;;;4991096;28;20408;-52
2023/03/09 06:12:50;;;;;;;35.50;20.20;;;6.30;73.60;;;;;;5008596;28;20064;-50
2023/03/09 06:15:19;;;;;;;39.35;21.63;;;6.30;73.80;;;;;;5000841;28;20046;-53
2023/03/09 06:17:47;;;;;;;36.60;21.80;;;6.30;73.90;;;;;;5006435;28;20437;-51
2023/03/09 06:20:18;;;;;;;40.70;22.33;;;6.30;73.90;;;;;;5007288;28;20532;-51
2023/03/09 06:22:49;;;;;;;38.10;21.55;;;6.30;73.80;;;;;;5001841;28;20045;-50
2023/03/09 06:25:18;;;;;;;36.95;21.83;;;6.30;73.70;;;;;;5002562;28;20054;-50
2023/03/09 06:27:46;;;;;;;37.42;21.83;;;6.30;73.80;;;;;;5012833;28;20145;-50
2023/03/09 06:30:16;;;;;;;42.60;22.42;;;6.30;74.00;;;;;;5012625;28;20418;-50
2023/03/09 06:32:48;;;;;;;37.63;22.35;;;6.30;73.90;;;;;;5006885;28;20033;-48
2023/03/09 06:35:17;;;;;;;38.55;21.90;;;6.40;74.00;;;;;;5013849;28;20120;-49
2023/03/09 06:37:46;;;;;;;42.60;22.48;;;6.40;74.00;;;;;;4994916;28;20050;-50
2023/03/09 06:40:15;;;;;;;43.63;23.92;;;6.40;74.00;;;;;;5007470;28;20041;-49
2023/03/09 06:42:42;;;;;;;39.95;21.38;;;6.40;74.00;;;;;;5002891;28;20046;-50
2023/03/09 06:45:10;;;;;;;39.85;23.38;;;6.40;74.00;;;;;;5016034;28;20046;-49
2023/03/09 06:47:37;;;;;;;40.92;22.63;;;6.40;74.10;;;;;;5009770;28;20064;-48
2023/03/09 06:50:07;;;;;;;42.47;23.25;;;6.40;74.30;;;;;;5006246;28;20053;-48
2023/03/09 06:52:36;;;;;;;38.65;22.20;;;6.50;74.40;;;;;;4985727;28;20791;-50
2023/03/09 06:55:05;;;;;;;37.15;21.55;;;6.50;74.30;;;;;;5004989;28;20573;-49
2023/03/09 06:57:45;;;;;;;39.63;21.60;;;6.60;74.30;;;;;;4995315;28;20495;-49
2023/03/09 07:00:12;;;;;;;40.50;23.40;;;6.60;74.20;;;;;;5012257;28;20100;-51
2023/03/09 07:02:39;;;;;;;37.85;22.30;;;6.60;74.10;;;;;;5010570;28;20057;-49
2023/03/09 07:05:08;;;;;;;43.17;23.17;;;6.70;74.10;;;;;;5020617;28;20049;-50
2023/03/09 07:07:35;;;;;;;35.83;22.35;;;6.70;74.10;;;;;;5027325;28;20046;-49
2023/03/09 07:10:04;;;;;;;37.67;22.05;;;6.70;74.00;;;;;;5016370;28;20061;-48
2023/03/09 07:12:31;;;;;;;39.55;23.08;;;6.80;74.00;;;;;;5023010;28;20042;-48
2023/03/09 07:14:58;;;;;;;39.38;21.80;;;6.80;73.90;;;;;;5030166;28;20041;-50
2023/03/09 07:17:25;;;;;;;39.85;22.83;;;6.90;73.90;;;;;;5029511;28;20056;-49
2023/03/09 07:19:56;;;;;;;39.08;22.52;;;6.90;73.90;;;;;;5008896;28;20045;-52
2023/03/09 07:22:24;;;;;;;37.43;22.03;;;7.00;73.90;;;;;;5012880;28;20053;-49
2023/03/09 07:24:51;;;;;;;37.13;21.67;;;7.00;73.80;;;;;;5022533;28;20284;-52
2023/03/09 07:27:19;;;;;;;35.03;21.65;;;7.00;73.70;;;;;;5016014;28;20054;-49
2023/03/09 07:29:46;;;;;;;40.53;24.15;;;7.10;73.70;;;;;;5025292;28;20487;-49
2023/03/09 07:32:13;;;;;;;41.58;23.95;;;7.10;73.60;;;;;;5014465;28;20042;-48
2023/03/09 07:34:43;;;;;;;39.15;23.83;;;7.10;73.60;;;;;;5029217;28;20084;-49
2023/03/09 07:37:10;;;;;;;43.83;23.58;;;7.10;73.60;;;;;;5013630;28;20120;-51
2023/03/09 07:39:36;;;;;;;38.58;22.40;;;7.20;73.40;;;;;;5018124;28;20046;-50
2023/03/09 07:42:03;;;;;;;43.00;23.90;;;7.20;73.20;;;;;;5026466;28;20109;-50
2023/03/09 07:44:45;;;;;;;;;;;7.20;73.10;;;;;;5013996;28;20076;-50
2023/03/09 07:47:12;;;;;;;37.00;20.35;;;7.40;73.00;;;;;;5017438;28;20091;-48
2023/03/09 07:49:41;;;;;;;42.85;23.58;;;7.30;72.60;;;;;;5023091;28;20087;-48
2023/03/09 07:52:08;;;;;;;38.88;22.42;;;7.30;72.50;;;;;;5017525;28;20560;-50
2023/03/09 07:54:36;;;;;;;39.63;22.10;;;7.30;72.50;;;;;;5018403;28;20053;-49
2023/03/09 07:57:05;;;;;;;42.58;23.73;;;7.30;72.50;;;;;;5015563;28;20788;-50
2023/03/09 07:59:31;;;;;;;40.50;23.48;;;7.30;72.60;;;;;;5011963;28;20047;-50
2023/03/09 08:01:58;;;;;;;43.53;24.30;;;7.30;72.60;;;;;;5009451;28;20665;-51
2023/03/09 08:04:25;;;;;;;39.40;23.52;;;7.30;72.70;;;;;;5027073;28;20041;-49
2023/03/09 08:06:52;;;;;;;41.00;24.00;;;7.30;72.80;;;;;;5030279;28;20041;-51
2023/03/09 08:09:19;;;;;;;43.67;25.73;;;7.40;72.80;;;;;;5016107;28;20045;-50
2023/03/09 08:11:47;;;;;;;39.17;23.60;;;7.40;72.90;;;;;;4990538;28;20045;-50
2023/03/09 08:14:13;;;;;;;39.75;22.80;;;7.40;73.00;;;;;;5030873;28;20045;-49
2023/03/09 08:16:40;;;;;;;38.38;21.98;;;7.40;73.00;;;;;;5022844;28;20034;-49
2023/03/09 08:19:07;;;;;;;38.88;22.83;;;7.50;73.00;;;;;;5020742;28;20042;-49
2023/03/09 08:21:33;;;;;;;39.22;22.05;;;7.50;72.90;;;;;;5009608;28;20052;-50
2023/03/09 08:24:00;;;;;;;38.58;22.88;;;7.50;72.80;;;;;;5012263;28;20064;-49
2023/03/09 08:26:27;;;;;;;42.65;22.58;;;7.60;72.70;;;;;;4999601;28;20129;-49
2023/03/09 08:29:01;;;;;;;37.70;21.70;;;7.60;72.80;;;;;;5008415;28;20897;-48
2023/03/09 08:31:27;;;;;;;34.47;20.17;;;7.60;72.80;;;;;;5008921;28;20450;-50
2023/03/09 08:33:54;;;;;;;35.67;20.05;;;7.60;72.80;;;;;;5011018;28;20043;-49
2023/03/09 08:36:21;;;;;;;31.83;19.02;;;7.60;72.70;;;;;;5010563;28;20049;-49
2023/03/09 08:38:49;;;;;;;33.72;19.67;;;7.70;72.60;;;;;;5009425;28;20046;-50
2023/03/09 08:41:16;;;;;;;30.50;19.50;;;7.70;73.10;;;;;;5004769;28;20053;-50
2023/03/09 08:43:43;;;;;;;35.75;21.40;;;7.70;72.40;;;;;;5011159;28;20049;-50
2023/03/09 08:46:10;;;;;;;31.55;20.38;;;7.70;72.50;;;;;;5017062;28;20418;-49
2023/03/09 08:48:37;;;;;;;35.10;20.63;;;7.70;72.50;;;;;;5009166;28;20046;-49
2023/03/09 08:51:08;;;;;;;37.72;22.70;;;7.80;72.30;;;;;;5011329;28;20545;-50
2023/03/09 08:53:36;;;;;;;37.88;21.95;;;7.70;72.20;;;;;;5007117;28;20048;-51
2023/03/09 08:56:05;;;;;;;37.95;23.23;;;7.80;72.20;;;;;;5002851;28;20045;-50
2023/03/09 08:58:33;;;;;;;37.17;21.52;;;7.80;72.00;;;;;;5006940;28;20679;-49
2023/03/09 09:01:01;;;;;;;38.92;23.38;;;7.80;72.00;;;;;;5011869;28;20422;-48
2023/03/09 09:03:28;;;;;;;41.25;23.65;;;7.80;72.00;;;;;;5010733;28;20410;-50
2023/03/09 09:05:56;;;;;;;41.50;24.58;;;7.70;72.00;;;;;;4992681;28;20085;-49
2023/03/09 09:08:24;;;;;;;44.45;25.60;;;7.80;72.10;;;;;;5005843;28;20037;-50
2023/03/09 09:10:51;;;;;;;50.17;26.00;;;7.80;72.50;;;;;;5008845;28;20120;-54
2023/03/09 09:13:17;;;;;;;37.00;23.00;;;7.80;72.70;;;;;;5010421;28;20034;-50
2023/03/09 09:15:44;;;;;;;44.40;26.48;;;7.80;72.70;;;;;;5018235;28;20037;-50
2023/03/09 09:18:11;;;;;;;38.05;22.65;;;7.80;72.80;;;;;;5006564;28;20406;-52
2023/03/09 09:20:37;;;;;;;42.55;22.48;;;7.90;73.00;;;;;;5006275;28;20042;-52
2023/03/09 09:23:04;;;;;;;38.10;23.00;;;8.00;73.10;;;;;;5009275;28;20697;-50
2023/03/09 09:25:31;;;;;;;38.40;22.20;;;8.00;72.90;;;;;;5021959;28;20052;-50
2023/03/09 09:28:00;;;;;;;38.17;22.10;;;8.10;73.10;;;;;;5010731;28;20046;-53
2023/03/09 09:30:27;;;;;;;35.08;21.00;;;8.20;73.10;;;;;;5005707;28;20117;-51
2023/03/09 09:32:53;;;;;;;34.10;20.75;;;8.30;72.90;;;;;;5006657;28;20064;-50
2023/03/09 09:35:20;;;;;;;43.97;24.95;;;8.40;72.90;;;;;;5007998;28;20089;-52
2023/03/09 09:37:47;;;;;;;38.40;22.65;;;8.50;72.80;;;;;;5002615;28;20042;-49
2023/03/09 09:40:15;;;;;;;33.58;20.90;;;8.50;72.70;;;;;;5008293;28;20045;-53
2023/03/09 09:42:44;;;;;;;35.33;21.27;;;8.60;72.50;;;;;;5007518;28;20034;-55
2023/03/09 09:45:37;;;;;;;41.92;23.08;;;8.70;71.90;;;;;;4991018;28;20037;-51
2023/03/09 09:48:06;;;;;;;36.05;20.92;;;8.80;71.40;;;;;;5006752;28;20046;-53
2023/03/09 09:51:04;;;;;;;32.88;19.73;;;8.80;71.30;;;;;;5005336;28;20121;-52
2023/03/09 09:53:38;;;;;;;33.70;20.70;;;8.80;70.70;;;;;;5005471;28;20036;-50
2023/03/09 09:56:10;;;;;;;36.17;21.48;;;8.80;70.80;;;;;;5009484;28;20052;-53
2023/03/09 09:58:48;;;;;;;35.67;20.42;;;8.80;70.80;;;;;;5003408;28;20125;-53
2023/03/09 10:01:51;;;;;;;35.53;21.25;;;8.70;71.30;;;;;;5009069;28;20427;-52
2023/03/09 10:04:28;;;;;;;37.95;22.60;;;8.70;70.40;;;;;;5006050;28;20050;-52
2023/03/09 10:07:00;;;;;;;38.38;23.23;;;8.70;70.60;;;;;;5006137;28;20564;-50
2023/03/09 10:09:30;;;;;;;36.45;22.50;;;8.60;70.70;;;;;;5006963;28;20038;-52
2023/03/09 10:12:06;;;;;;;41.63;22.38;;;8.60;71.00;;;;;;5005320;28;20065;-51
2023/03/09 10:14:38;;;;;;;41.50;22.98;;;8.60;71.30;;;;;;5007427;28;20037;-50
2023/03/09 10:17:20;;;;;;;38.95;22.42;;;8.50;71.40;;;;;;5008526;28;20049;-52
2023/03/09 10:19:48;;;;;;;36.25;22.05;;;8.60;71.40;;;;;;5007814;28;20046;-53
2023/03/09 10:22:24;;;;;;;36.58;22.58;;;8.50;71.50;;;;;;5006030;28;20046;-50
2023/03/09 10:24:55;;;;;;;35.67;21.48;;;8.50;71.40;;;;;;5011852;28;20052;-51
2023/03/09 10:27:57;;;;;;;38.17;23.27;;;8.60;71.80;;;;;;5004716;28;20053;-50
2023/03/09 10:30:45;;;;;;;35.40;21.42;;;8.60;72.00;;;;;;4976219;28;20053;-53
2023/03/09 10:33:19;;;;;;;39.72;22.65;;;8.70;72.20;;;;;;5009255;28;20066;-51
2023/03/09 10:36:03;;;;;;;39.65;24.80;;;8.70;72.40;;;;;;5005226;28;20691;-53
2023/03/09 10:38:33;;;;;;;38.42;24.17;;;8.80;72.60;;;;;;5004908;28;20034;-50
2023/03/09 10:40:59;;;;;;;40.42;24.80;;;8.90;72.40;;;;;;5011193;28;20462;-50
2023/03/09 10:43:30;;;;;;;41.80;23.80;;;9.00;72.10;;;;;;5011664;28;20044;-51
2023/03/09 10:46:13;;;;;;;36.28;22.73;;;9.00;71.50;;;;;;5010069;28;20477;-52
2023/03/09 10:48:42;;;;;;;38.47;24.83;;;9.10;71.30;;;;;;5008971;28;20081;-52
2023/03/09 10:51:32;;;;;;;38.92;24.35;;;9.20;71.60;;;;;;5000289;28;20045;-52
2023/03/09 10:54:24;;;;;;;38.30;24.85;;;9.20;71.60;;;;;;5013212;28;20042;-50
2023/03/09 10:56:52;;;;;;;43.83;25.88;;;9.20;71.50;;;;;;5012862;28;20046;-51
2023/03/09 10:59:24;;;;;;;41.53;25.98;;;9.30;71.80;;;;;;5009022;28;20042;-53
2023/03/09 11:01:53;;;;;;;43.77;26.37;;;9.30;71.60;;;;;;5008640;28;20108;-51
2023/03/09 11:04:23;;;;;;;47.88;26.80;;;9.30;71.60;;;;;;5011217;28;20048;-52
2023/03/09 11:06:55;;;;;;;45.92;27.67;;;9.40;71.40;;;;;;5018780;28;20049;-52
2023/03/09 11:09:28;;;;;;;46.00;28.48;;;9.40;71.10;;;;;;5002220;28;20118;-46
2023/03/09 11:12:07;;;;;;;42.22;27.15;;;9.40;71.10;;;;;;5016728;28;20037;-48
2023/03/09 11:14:41;;;;;;;44.72;26.80;;;9.40;71.20;;;;;;5017077;28;20034;-48
2023/03/09 11:17:37;;;;;;;46.80;27.67;;;9.50;71.30;;;;;;5010902;28;20509;-47
2023/03/09 11:20:20;;;;;;;40.90;26.02;;;9.50;71.20;;;;;;5006762;28;20994;-47
2023/03/09 11:23:35;;;;;;;43.13;25.95;;;9.50;71.30;;;;;;5012436;28;20478;-46
2023/03/09 11:26:17;;;;;;;41.40;24.67;;;9.50;71.30;;;;;;4992444;28;20066;-47
2023/03/09 11:28:54;;;;;;;44.33;26.80;;;9.50;71.30;;;;;;5009388;28;20042;-47
2023/03/09 11:31:24;;;;;;;45.17;28.10;;;9.50;71.30;;;;;;5004182;28;20049;-47
2023/03/09 11:33:55;;;;;;;44.83;28.00;;;9.50;71.10;;;;;;5001392;28;20538;-47
2023/03/09 11:36:33;;;;;;;43.10;26.70;;;9.50;71.20;;;;;;5007756;28;20040;-49
2023/03/09 11:39:03;;;;;;;46.65;27.85;;;9.50;71.20;;;;;;5004061;28;20522;-47
2023/03/09 11:41:38;;;;;;;48.85;30.00;;;9.50;71.40;;;;;;5005512;28;20384;-48
2023/03/09 11:44:15;;;;;;;38.63;25.85;;;9.50;71.60;;;;;;5005409;28;20046;-47
2023/03/09 11:46:42;;;;;;;44.42;27.42;;;9.50;71.60;;;;;;5012410;28;20081;-47
2023/03/09 11:49:30;;;;;;;44.45;27.35;;;9.50;71.50;;;;;;5003998;28;20061;-49
2023/03/09 11:51:59;;;;;;;44.55;25.92;;;9.50;71.00;;;;;;5007160;28;20442;-47
2023/03/09 11:54:41;;;;;;;44.53;26.77;;;9.50;71.20;;;;;;5005444;28;20384;-47
2023/03/09 11:57:13;;;;;;;;;;;9.50;71.20;;;;;;5013036;28;20042;-47
2023/03/09 12:00:00;;;;;;;41.83;23.45;;;9.60;71.20;;;;;;5010105;28;19921;-48
2023/03/09 12:02:53;;;;;;;37.67;22.65;;;9.60;71.00;;;;;;5012077;28;20524;-48
2023/03/09 12:05:20;;;;;;;41.95;25.20;;;9.60;71.00;;;;;;5002633;28;20108;-47
2023/03/09 12:07:53;;;;;;;45.70;26.30;;;9.60;71.10;;;;;;5007423;28;20041;-47
2023/03/09 12:10:32;;;;;;;41.30;24.98;;;9.60;71.30;;;;;;5003989;28;20120;-46
2023/03/09 12:13:19;;;;;;;42.13;25.42;;;9.60;71.40;;;;;;5014801;28;20045;-47
2023/03/09 12:15:46;;;;;;;39.35;23.52;;;9.60;71.60;;;;;;5011699;28;20033;-47
2023/03/09 12:18:31;;;;;;;37.53;23.73;;;9.60;71.80;;;;;;5006220;28;20030;-46
2023/03/09 12:21:00;;;;;;;41.03;23.05;;;9.70;72.00;;;;;;5009868;28;20495;-47
2023/03/09 12:23:35;;;;;;;36.17;23.60;;;9.70;72.20;;;;;;5006608;28;20030;-47
2023/03/09 12:26:05;;;;;;;40.53;24.80;;;9.70;72.30;;;;;;5006954;28;20198;-48
2023/03/09 12:28:32;;;;;;;33.22;20.50;;;9.80;72.30;;;;;;5011149;28;20530;-48
2023/03/09 12:31:00;;;;;;;38.30;23.13;;;9.90;72.10;;;;;;5005224;28;20057;-47
2023/03/09 12:33:46;;;;;;;35.35;22.00;;;10.00;72.00;;;;;;5018700;28;20030;-47
2023/03/09 12:36:23;;;;;;;35.83;21.80;;;10.00;71.60;;;;;;5017324;28;20044;-46
2023/03/09 12:39:23;;;;;;;35.03;22.63;;;10.10;71.60;;;;;;4999927;28;20049;-50
2023/03/09 12:42:10;;;;;;;34.30;20.83;;;10.10;71.30;;;;;;4959482;28;20498;-48
2023/03/09 12:44:43;;;;;;;34.97;21.33;;;10.10;71.20;;;;;;5023449;28;20046;-47
2023/03/09 12:47:37;;;;;;;39.08;22.73;;;10.10;71.10;;;;;;5018441;28;20078;-47
2023/03/09 12:50:17;;;;;;;31.80;19.77;;;10.10;70.80;;;;;;5006969;28;20042;-47
2023/03/09 12:53:05;;;;;;;30.90;20.40;;;10.10;71.00;;;;;;5009805;28;20084;-49
2023/03/09 12:55:34;;;;;;;31.85;20.10;;;10.10;70.90;;;;;;5017935;28;20042;-47
2023/03/09 12:58:22;;;;;;;32.83;19.65;;;10.00;70.90;;;;;;5025605;28;20042;-48
2023/03/09 13:01:03;;;;;;;29.08;19.30;;;10.00;71.00;;;;;;5012717;28;20670;-46